Whitefield, NH

8:19 AM EDT on March 27, 2015 (GMT -0400)
Mount Washington Regional | | Change Station
CLOSE
Current Station
Airport
Location: Whitefield,
Elevation: 1073 ft
Nearby Weather Stations

Elev 1073 ft 44.37 °N, 71.54 °W | Updated 27 minutes ago

Overcast
Overcast
34 °F
Feels Like 34 °F
N
0
Wind Variable Wind from North

Today
High -- | Low -- °F
--% Chance of Precip.
Yesterday
High -- | Low -- °F
Precip. -- in
6:36 AM 7:06 PM
First Quarter, 52% visible
Pressure 29.75 in
Visibility 10.0 miles
Clouds Few 2200 ft
Scattered Clouds 3500 ft
Overcast 6000 ft
Dew Point 32 °F
Humidity 92%
Rainfall 0.01 in
Snow Depth Not available.
UV 0 out of 12
Pollen .60 out of 12
Air Quality Not available.
Flu Activity Not available.
METAR KHIE 271152Z AUTO 00000KT 10SM FEW022 SCT035 OVC060 01/00 A2971 RMK AO2 SLP072 60000 70044 T00110000 10011 20006 53013

More Conditions Fewer Conditions

Pressure 29.75 in
Visibility 10.0 miles
Clouds Few 2200 ft
Scattered Clouds 3500 ft
Overcast 6000 ft
Dew Point 32 °F
Humidity 92%
Rainfall 0.01 in
Snow Depth Not available.
UV 0 out of 12
Pollen .60 out of 12
Air Quality Not available.
Flu Activity Not available.
METAR KHIE 271152Z AUTO 00000KT 10SM FEW022 SCT035 OVC060 01/00 A2971 RMK AO2 SLP072 60000 70044 T00110000 10011 20006 53013

More Conditions Fewer Conditions

10-Day Weather Forecast

Almanac

Astronomy

Mar. 27, 2015 Rise Set
Actual Time
Civil Twilight
Nautical Twilight
Astronomical Twilight
Moon
Length of Visible Light
Length of Day
Tomorrow will be .
, % of the Moon is Illuminated

Today's Extremes

State Highs State Lows

Community

WunderPhotos

Upload Photos

1,808,711 photos uploaded!

WunderBlogs® & News

Nearby

Air Quality

  Air Quality AQ Index Pollutant
Not available.

Snow Depth

Station Depth Elevation

Earthquake Activity

City Distance Mag. Time & Date
Minimum magnitude displayed is 2.5.

Coastal Water Temperatures

Place Temperature

Stations

Nearby Weather Stations

Station Location Temp. Windchill Dew Point Humidity Wind Precip. Elev Updated Type